ADDS METAR Data INFO
IDs: Format: Raw Decoded Include TAF

Data at: 0917 UTC 25 Feb 2018

KTPL 250851Z AUTO 32005KT 9SM CLR 11/11 A3000 RMK AO2 SLP168 T01060106 58003
KTPL 250751Z AUTO 34004KT 10SM BKN060 12/11 A3001 RMK AO2 SLP173 T01170111
KTPL 250651Z AUTO 34004KT 10SM CLR 12/11 A2999 RMK AO2 SLP167 T01170111
KTPL 250551Z AUTO 05004KT 10SM BKN060 13/12 A3001 RMK AO2 SLP171 60004 T01330122 10167 20133 402610133 51012
KTPL 250451Z AUTO 00000KT 10SM BKN055 BKN070 14/13 A3000 RMK AO2 SLP171 T01390128
KTPL 250351Z AUTO 03004KT 10SM BKN042 OVC060 14/12 A2999 RMK AO2 SLP167 T01390122
KTPL 250251Z AUTO 03006KT 10SM OVC040 14/13 A2997 RMK AO2 SLP161 60004 T01390128 52023
KTPL 250151Z AUTO 01007KT 10SM SCT031 BKN044 14/13 A2995 RMK AO2 SLP154 T01390128
KTPL 250141Z AUTO 01007KT 10SM BKN031 OVC044 14/13 A2996 RMK AO2
KTPL 250120Z AUTO 01007KT 10SM BKN027 14/13 A2994 RMK AO2
KTPL 250051Z AUTO 03007KT 10SM FEW065 14/13 A2992 RMK AO2 WSHFT 2347 LTG DSNT E TSE21RAE26 SLP143 P0004 T01440133
KTPL 250027Z AUTO 05005KT 10SM FEW021 15/14 A2993 RMK AO2 WSHFT 2347 LTG DSNT NE AND E TSE21RAE26 P0004
KTPL 250003Z AUTO 02009KT 7SM -TSRA SCT011 SCT020 BKN030 16/15 A2990 RMK AO2 WSHFT 2347 LTG DSNT NE P0002
KTPL 250000Z AUTO 01011KT 4SM -TSRA BR SCT011 BKN020 BKN030 16/15 A2990 RMK AO2 P0002
KTPL 242351Z AUTO 35016G20KT 2 1/2SM +TSRA BR FEW012 SCT020 OVC028 17/15 A2990 RMK AO2 LTG DSNT W TSB24RAB49 SLP136 P0000 60000 T01670150 10261 20167 53031
KTPL 242330Z AUTO 03012KT 10SM VCTS SCT020 OVC026 17/14 A2986 RMK AO2 LTG DSNT W TSB24
KTPL 242314Z AUTO 36013G19KT 10SM BKN020 18/15 A2986 RMK AO2 LTG DSNT W
KTPL 242251Z AUTO 17013KT 10SM CLR 24/20 A2983 RMK AO2 LTG DSNT W AND NW SLP106 T02390200
KTPL 242236Z AUTO 17013KT 10SM SCT025 24/19 A2982 RMK AO2
KTPL 242226Z AUTO 17013KT 10SM BKN025 24/19 A2982 RMK AO2
KTPL 242151Z AUTO 18014KT 10SM FEW025 26/19 A2981 RMK AO2 SLP101 T02560194
KTPL 242058Z AUTO 19014KT 10SM SCT025 SCT031 24/19 A2981 RMK AO2
KTPL 242034Z AUTO 19016G21KT 10SM BKN025 BKN031 24/19 A2982 RMK AO2
KTPL 241951Z AUTO 20014KT 10SM FEW025 24/19 A2984 RMK AO2 SLP113 T02440194
KTPL 241947Z AUTO 20013KT 10SM SCT025 24/19 A2984 RMK AO2
KTPL 241851Z AUTO 19018G22KT 10SM OVC023 23/19 A2986 RMK AO2 RAB1752E04 SLP120 P0000 T02330194
KTPL 241838Z AUTO 20017KT 10SM BKN021 24/19 A2986 RMK AO2 RAB1752E04 P0000
KTPL 241817Z AUTO 19020KT 10SM SCT023 23/19 A2987 RMK AO2 RAB1752E04 P0000
KTPL 241751Z AUTO 18024G27KT 10SM BKN018 BKN026 23/20 A2986 RMK AO2 PK WND 18027/1747 PRESFR SLP121 60001 T02280200 10228 20194 58002
KTPL 241651Z AUTO 18016G25KT 10SM OVC012 22/20 A2988 RMK AO2 PK WND 17026/1615 RAB22E38 SLP128 P0000 T02170200
KTPL 241551Z AUTO 18017G23KT 10SM OVC010 21/20 A2987 RMK AO2 RAE20 SLP125 P0000 T02060200
KTPL 241451Z AUTO 17018G21KT 9SM -RA OVC012 20/19 A2986 RMK AO2 RAB46 SLP124 P0000 60001 T02000194 50003
KTPL 241425Z AUTO 18014KT 8SM OVC010 20/19 A2987 RMK AO2
KTPL 241351Z AUTO 17013KT 6SM BR OVC008 20/19 A2987 RMK AO2 LTG DSNT E RAE22 CIG 007V011 SLP126 P0001 T02000194
KTPL 241251Z AUTO 21009KT 7SM -RA OVC006 19/19 A2989 RMK AO2 RAB33 SLP133 P0000 T01940194
KTPL 241151Z AUTO 14009KT 8SM BKN006 BKN015 OVC020 19/19 A2985 RMK AO2 RAE51 CIG 004V011 SLP120 P0003 60003 70010 T01940194 10194 20133 56031
KTPL 241143Z AUTO 14011KT 7SM -RA BKN006 BKN017 OVC028 19/19 A2985 RMK AO2 CIG 004V011 P0003
KTPL 241129Z AUTO 13011KT 7SM -RA FEW003 BKN022 OVC032 19/19 A2986 RMK AO2 P0002
KTPL 241051Z AUTO 15014KT 4SM -RA BR OVC003 19/19 A2989 RMK AO2 RAB19 SLP133 P0000 T01890189 TSNO
KTPL 241004Z AUTO 14009KT 3SM BR OVC003 18/18 A2990 RMK AO2
KTPL 240951Z AUTO 14011KT 2SM BR OVC003 18/18 A2990 RMK AO2 SLP137 T01830183
KTPL 240935Z AUTO 13009KT 2 1/2SM BR OVC003 18/18 A2991 RMK AO2
KTPL 240851Z AUTO 16004KT 4SM BR OVC003 15/15 A2995 RMK AO2 SLP156 T01500150 58017
KTPL 240751Z AUTO 30003KT 4SM BR OVC003 13/13 A2998 RMK AO2 SLP168 T01330133
KTPL 240729Z AUTO 00000KT 4SM BR OVC003 13/13 A2997 RMK AO2
KTPL 240651Z AUTO 03003KT 3SM BR OVC005 13/13 A2998 RMK AO2 SLP169 T01330133
KTPL 240644Z AUTO 00000KT 3SM BR OVC005 13/13 A2999 RMK AO2
KTPL 240631Z AUTO 34005KT 3SM BR OVC007 13/13 A2999 RMK AO2
KTPL 240551Z AUTO 35004KT 2 1/2SM BR OVC009 13/13 A3000 RMK AO2 SLP175 T01330133 10144 20133 401440039 58012
KTPL 240533Z AUTO 32004KT 2 1/2SM BR OVC009 13/13 A3001 RMK AO2
KTPL 240518Z AUTO 00000KT 2SM BR FEW001 BKN011 OVC060 13/13 A3002 RMK AO2
KTPL 240458Z AUTO 36003KT 2SM BR BKN001 OVC060 13/13 A3003 RMK AO2
KTPL 240451Z AUTO 02003KT 1 3/4SM BR OVC001 13/13 A3002 RMK AO2 SLP184 T01330133
KTPL 240441Z AUTO 34004KT 1 3/4SM BR OVC001 13/13 A3003 RMK AO2
KTPL 240359Z AUTO 34005KT 2SM BR BKN001 OVC060 13/13 A3003 RMK AO2
KTPL 240351Z AUTO 33005KT 2SM BR SCT003 OVC060 13/13 A3003 RMK AO2 SLP187 T01330133
KTPL 240344Z AUTO 35004KT 2SM BR FEW003 OVC060 13/13 A3003 RMK AO2
KTPL 240332Z AUTO 33004KT 2SM BR BKN003 OVC060 13/13 A3004 RMK AO2
KTPL 240251Z AUTO 31005KT 1 1/2SM BR BKN003 13/13 A3003 RMK AO2 SLP190 T01330133 53004
KTPL 240249Z AUTO 31004KT 1 3/4SM BR BKN003 13/13 A3003 RMK AO2
KTPL 240239Z AUTO 32003KT 2 1/2SM BR BKN003 13/13 A3003 RMK AO2
KTPL 240233Z AUTO 00000KT 3SM BR SCT003 14/14 A3003 RMK AO2
KTPL 240215Z AUTO 00000KT 2SM BR SCT003 13/13 A3003 RMK AO2
KTPL 240203Z AUTO 00000KT 1 3/4SM BR SCT003 SCT060 13/13 A3003 RMK AO2
KTPL 240151Z AUTO 00000KT 1 3/4SM BR BKN003 BKN055 13/13 A3003 RMK AO2 SLP188 T01330133
KTPL 240147Z AUTO 00000KT 1 1/2SM BR SCT003 BKN055 13/13 A3003 RMK AO2
KTPL 240136Z AUTO 00000KT 1SM BR SCT003 BKN050 13/13 A3002 RMK AO2 TSNO RVRNO
KTPL 240130Z AUTO 00000KT 3/4SM BR BKN003 BKN050 14/13 A3002 RMK AO2 RVRNO
KTPL 240123Z AUTO 00000KT 1 3/4SM BR BKN003 OVC050 14/14 A3002 RMK AO2
KTPL 240051Z AUTO 28004KT 5SM BR BKN003 BKN050 14/14 A3002 RMK AO2 SLP186 T01390139
KTPL 240031Z AUTO 16004KT 3SM BR OVC003 14/14 A3001 RMK AO2
KTPL 240024Z AUTO 12006KT 1 1/4SM BR OVC003 14/14 A3000 RMK AO2
KTPL 240015Z AUTO 12006KT 3/4SM BR OVC003 14/14 A3001 RMK AO2 RVRNO
KTPL 240007Z AUTO 12005KT 1 3/4SM BR OVC003 14/14 A3001 RMK AO2 VIS 1 1/4V3
KTPL 232306Z AUTO 14005KT 3SM BR OVC003 14/13 A3002 RMK AO2
KTPL 232251Z AUTO 12005KT 2 1/2SM BR OVC003 14/13 A3003 RMK AO2 VIS 2V3 SLP189 T01390133
KTPL 232151Z AUTO 12008KT 4SM BR OVC003 13/13 A3005 RMK AO2 SLP193 T01280128
KTPL 232147Z AUTO 12007KT 4SM BR OVC003 13/13 A3006 RMK AO2
KTPL 232133Z AUTO 11008KT 2SM BR OVC003 13/12 A3006 RMK AO2 VIS 1 1/4V4